sensor_id;sensor_type;location;lat;lon;timestamp;P1;durP1;ratioP1;P2;durP2;ratioP2
7485;SDS011;3784;54.098;9.998;2023-09-07T00:01:13;5.53;;;4.97;;
7485;SDS011;3784;54.098;9.998;2023-09-07T00:03:40;4.97;;;4.50;;
7485;SDS011;3784;54.098;9.998;2023-09-07T00:06:08;6.20;;;4.93;;
7485;SDS011;3784;54.098;9.998;2023-09-07T00:08:35;5.07;;;4.63;;
7485;SDS011;3784;54.098;9.998;2023-09-07T00:11:08;5.50;;;5.00;;
7485;SDS011;3784;54.098;9.998;2023-09-07T00:13:35;5.30;;;4.90;;
7485;SDS011;3784;54.098;9.998;2023-09-07T00:16:03;7.33;;;4.70;;
7485;SDS011;3784;54.098;9.998;2023-09-07T00:18:30;7.03;;;5.20;;
7485;SDS011;3784;54.098;9.998;2023-09-07T00:20:58;6.70;;;4.67;;
7485;SDS011;3784;54.098;9.998;2023-09-07T00:23:25;6.53;;;4.93;;
7485;SDS011;3784;54.098;9.998;2023-09-07T00:25:52;7.90;;;4.90;;
7485;SDS011;3784;54.098;9.998;2023-09-07T00:28:18;6.60;;;4.87;;
7485;SDS011;3784;54.098;9.998;2023-09-07T00:30:44;5.20;;;4.77;;
7485;SDS011;3784;54.098;9.998;2023-09-07T00:33:11;5.33;;;4.73;;
7485;SDS011;3784;54.098;9.998;2023-09-07T00:35:37;5.93;;;5.13;;
7485;SDS011;3784;54.098;9.998;2023-09-07T00:38:03;6.47;;;4.63;;
7485;SDS011;3784;54.098;9.998;2023-09-07T00:40:30;6.10;;;4.90;;
7485;SDS011;3784;54.098;9.998;2023-09-07T00:42:56;5.87;;;5.17;;
7485;SDS011;3784;54.098;9.998;2023-09-07T00:45:24;8.57;;;5.80;;
7485;SDS011;3784;54.098;9.998;2023-09-07T00:47:50;6.03;;;5.10;;
7485;SDS011;3784;54.098;9.998;2023-09-07T00:50:17;5.27;;;4.77;;
7485;SDS011;3784;54.098;9.998;2023-09-07T00:52:43;7.13;;;5.40;;
7485;SDS011;3784;54.098;9.998;2023-09-07T00:55:10;5.60;;;5.00;;
7485;SDS011;3784;54.098;9.998;2023-09-07T00:57:39;6.37;;;5.00;;
7485;SDS011;3784;54.098;9.998;2023-09-07T01:00:06;9.93;;;5.43;;
7485;SDS011;3784;54.098;9.998;2023-09-07T01:02:33;5.87;;;5.23;;
7485;SDS011;3784;54.098;9.998;2023-09-07T01:05:04;6.03;;;5.37;;
7485;SDS011;3784;54.098;9.998;2023-09-07T01:07:40;6.33;;;4.97;;
7485;SDS011;3784;54.098;9.998;2023-09-07T01:10:09;5.23;;;4.83;;
7485;SDS011;3784;54.098;9.998;2023-09-07T01:12:35;6.20;;;5.70;;
7485;SDS011;3784;54.098;9.998;2023-09-07T01:15:02;6.93;;;6.20;;
7485;SDS011;3784;54.098;9.998;2023-09-07T01:17:30;6.10;;;5.50;;
7485;SDS011;3784;54.098;9.998;2023-09-07T01:19:59;6.17;;;5.57;;
7485;SDS011;3784;54.098;9.998;2023-09-07T01:22:32;6.10;;;5.60;;
7485;SDS011;3784;54.098;9.998;2023-09-07T01:24:59;6.37;;;5.77;;
7485;SDS011;3784;54.098;9.998;2023-09-07T01:27:26;6.77;;;6.17;;
7485;SDS011;3784;54.098;9.998;2023-09-07T01:29:53;6.93;;;6.23;;
7485;SDS011;3784;54.098;9.998;2023-09-07T01:32:19;7.17;;;6.57;;
7485;SDS011;3784;54.098;9.998;2023-09-07T01:34:46;6.53;;;5.83;;
7485;SDS011;3784;54.098;9.998;2023-09-07T01:37:12;7.47;;;6.13;;
7485;SDS011;3784;54.098;9.998;2023-09-07T01:39:39;6.50;;;5.90;;
7485;SDS011;3784;54.098;9.998;2023-09-07T01:42:05;7.10;;;6.40;;
7485;SDS011;3784;54.098;9.998;2023-09-07T01:44:32;6.83;;;6.27;;
7485;SDS011;3784;54.098;9.998;2023-09-07T01:46:58;6.90;;;6.23;;
7485;SDS011;3784;54.098;9.998;2023-09-07T01:49:25;7.40;;;6.70;;
7485;SDS011;3784;54.098;9.998;2023-09-07T01:51:51;7.27;;;6.77;;
7485;SDS011;3784;54.098;9.998;2023-09-07T01:54:18;6.97;;;6.27;;
7485;SDS011;3784;54.098;9.998;2023-09-07T01:56:45;6.13;;;5.63;;
7485;SDS011;3784;54.098;9.998;2023-09-07T01:59:11;7.03;;;6.53;;
7485;SDS011;3784;54.098;9.998;2023-09-07T02:01:37;6.63;;;6.03;;
7485;SDS011;3784;54.098;9.998;2023-09-07T02:04:05;6.97;;;6.40;;
7485;SDS011;3784;54.098;9.998;2023-09-07T02:06:31;7.00;;;6.30;;
7485;SDS011;3784;54.098;9.998;2023-09-07T02:08:58;6.57;;;5.97;;
7485;SDS011;3784;54.098;9.998;2023-09-07T02:11:24;6.30;;;5.70;;
7485;SDS011;3784;54.098;9.998;2023-09-07T02:13:50;7.00;;;6.30;;
7485;SDS011;3784;54.098;9.998;2023-09-07T02:16:17;8.20;;;6.37;;
7485;SDS011;3784;54.098;9.998;2023-09-07T02:18:44;6.37;;;5.77;;
7485;SDS011;3784;54.098;9.998;2023-09-07T02:21:12;7.10;;;6.50;;
7485;SDS011;3784;54.098;9.998;2023-09-07T02:23:38;6.33;;;5.83;;
7485;SDS011;3784;54.098;9.998;2023-09-07T02:26:05;6.37;;;5.77;;
7485;SDS011;3784;54.098;9.998;2023-09-07T02:28:31;6.53;;;6.03;;
7485;SDS011;3784;54.098;9.998;2023-09-07T02:31:02;6.90;;;6.27;;
7485;SDS011;3784;54.098;9.998;2023-09-07T02:33:29;5.77;;;5.17;;
7485;SDS011;3784;54.098;9.998;2023-09-07T02:35:56;6.40;;;5.90;;
7485;SDS011;3784;54.098;9.998;2023-09-07T02:38:23;6.53;;;6.00;;
7485;SDS011;3784;54.098;9.998;2023-09-07T02:40:49;6.23;;;5.73;;
7485;SDS011;3784;54.098;9.998;2023-09-07T02:43:16;6.40;;;5.80;;
7485;SDS011;3784;54.098;9.998;2023-09-07T02:45:42;6.60;;;5.97;;
7485;SDS011;3784;54.098;9.998;2023-09-07T02:48:08;7.77;;;5.77;;
7485;SDS011;3784;54.098;9.998;2023-09-07T02:50:35;5.97;;;5.40;;
7485;SDS011;3784;54.098;9.998;2023-09-07T02:53:02;6.67;;;6.00;;
7485;SDS011;3784;54.098;9.998;2023-09-07T02:55:30;6.20;;;5.70;;
7485;SDS011;3784;54.098;9.998;2023-09-07T02:57:57;5.73;;;5.23;;
7485;SDS011;3784;54.098;9.998;2023-09-07T03:00:23;6.03;;;5.43;;
7485;SDS011;3784;54.098;9.998;2023-09-07T03:02:50;6.23;;;5.60;;
7485;SDS011;3784;54.098;9.998;2023-09-07T03:05:16;5.53;;;4.97;;
7485;SDS011;3784;54.098;9.998;2023-09-07T03:07:44;6.07;;;5.50;;
7485;SDS011;3784;54.098;9.998;2023-09-07T03:10:11;6.53;;;5.83;;
7485;SDS011;3784;54.098;9.998;2023-09-07T03:12:37;6.30;;;5.70;;
7485;SDS011;3784;54.098;9.998;2023-09-07T03:15:04;6.23;;;5.63;;
7485;SDS011;3784;54.098;9.998;2023-09-07T03:17:31;6.30;;;5.80;;
7485;SDS011;3784;54.098;9.998;2023-09-07T03:19:57;6.33;;;5.70;;
7485;SDS011;3784;54.098;9.998;2023-09-07T03:22:24;5.80;;;5.40;;
7485;SDS011;3784;54.098;9.998;2023-09-07T03:24:50;6.13;;;5.53;;
7485;SDS011;3784;54.098;9.998;2023-09-07T03:27:17;8.77;;;6.23;;
7485;SDS011;3784;54.098;9.998;2023-09-07T03:29:44;6.60;;;6.10;;
7485;SDS011;3784;54.098;9.998;2023-09-07T03:32:10;6.33;;;5.83;;
7485;SDS011;3784;54.098;9.998;2023-09-07T03:34:38;6.43;;;5.83;;
7485;SDS011;3784;54.098;9.998;2023-09-07T03:37:04;6.73;;;6.13;;
7485;SDS011;3784;54.098;9.998;2023-09-07T03:39:32;5.80;;;5.30;;
7485;SDS011;3784;54.098;9.998;2023-09-07T03:41:59;6.80;;;5.90;;
7485;SDS011;3784;54.098;9.998;2023-09-07T03:44:25;6.10;;;5.50;;
7485;SDS011;3784;54.098;9.998;2023-09-07T03:46:51;8.23;;;5.67;;
7485;SDS011;3784;54.098;9.998;2023-09-07T03:49:18;6.53;;;5.93;;
7485;SDS011;3784;54.098;9.998;2023-09-07T03:51:44;5.97;;;5.47;;
7485;SDS011;3784;54.098;9.998;2023-09-07T03:54:11;5.67;;;5.17;;
7485;SDS011;3784;54.098;9.998;2023-09-07T03:56:37;5.50;;;5.10;;
7485;SDS011;3784;54.098;9.998;2023-09-07T03:59:05;5.97;;;5.33;;
7485;SDS011;3784;54.098;9.998;2023-09-07T04:01:31;6.20;;;5.30;;
7485;SDS011;3784;54.098;9.998;2023-09-07T04:03:58;5.43;;;4.93;;
7485;SDS011;3784;54.098;9.998;2023-09-07T04:06:24;6.30;;;5.70;;
7485;SDS011;3784;54.098;9.998;2023-09-07T04:08:51;6.20;;;5.60;;
7485;SDS011;3784;54.098;9.998;2023-09-07T04:11:17;6.27;;;5.77;;
7485;SDS011;3784;54.098;9.998;2023-09-07T04:13:44;5.57;;;5.10;;
7485;SDS011;3784;54.098;9.998;2023-09-07T04:16:10;7.20;;;5.63;;
7485;SDS011;3784;54.098;9.998;2023-09-07T04:18:36;5.53;;;5.07;;
7485;SDS011;3784;54.098;9.998;2023-09-07T04:21:05;6.40;;;5.90;;
7485;SDS011;3784;54.098;9.998;2023-09-07T04:23:34;6.53;;;5.93;;
7485;SDS011;3784;54.098;9.998;2023-09-07T04:26:06;7.10;;;6.40;;
7485;SDS011;3784;54.098;9.998;2023-09-07T04:28:36;7.20;;;6.60;;
7485;SDS011;3784;54.098;9.998;2023-09-07T04:31:02;7.33;;;6.47;;
7485;SDS011;3784;54.098;9.998;2023-09-07T04:33:30;8.30;;;6.93;;
7485;SDS011;3784;54.098;9.998;2023-09-07T04:36:05;7.07;;;6.40;;
7485;SDS011;3784;54.098;9.998;2023-09-07T04:38:34;6.67;;;6.10;;
7485;SDS011;3784;54.098;9.998;2023-09-07T04:41:07;7.43;;;5.87;;
7485;SDS011;3784;54.098;9.998;2023-09-07T04:43:34;6.23;;;5.73;;
7485;SDS011;3784;54.098;9.998;2023-09-07T04:46:01;9.63;;;6.00;;
7485;SDS011;3784;54.098;9.998;2023-09-07T04:48:28;6.03;;;5.37;;
7485;SDS011;3784;54.098;9.998;2023-09-07T04:50:58;6.10;;;5.53;;
7485;SDS011;3784;54.098;9.998;2023-09-07T04:53:27;6.07;;;5.57;;
7485;SDS011;3784;54.098;9.998;2023-09-07T04:55:54;6.10;;;5.50;;
7485;SDS011;3784;54.098;9.998;2023-09-07T04:58:21;7.90;;;6.03;;
7485;SDS011;3784;54.098;9.998;2023-09-07T05:00:47;6.23;;;5.60;;
7485;SDS011;3784;54.098;9.998;2023-09-07T05:03:14;6.77;;;5.40;;
7485;SDS011;3784;54.098;9.998;2023-09-07T05:05:41;6.70;;;6.10;;
7485;SDS011;3784;54.098;9.998;2023-09-07T05:08:08;5.80;;;5.40;;
7485;SDS011;3784;54.098;9.998;2023-09-07T05:10:34;5.90;;;5.40;;
7485;SDS011;3784;54.098;9.998;2023-09-07T05:13:01;6.60;;;5.80;;
7485;SDS011;3784;54.098;9.998;2023-09-07T05:15:27;6.03;;;5.53;;
7485;SDS011;3784;54.098;9.998;2023-09-07T05:17:54;6.03;;;5.53;;
7485;SDS011;3784;54.098;9.998;2023-09-07T05:20:21;5.70;;;5.20;;
7485;SDS011;3784;54.098;9.998;2023-09-07T05:22:47;6.80;;;5.80;;
7485;SDS011;3784;54.098;9.998;2023-09-07T05:25:14;7.43;;;6.50;;
7485;SDS011;3784;54.098;9.998;2023-09-07T05:27:40;7.83;;;6.43;;
7485;SDS011;3784;54.098;9.998;2023-09-07T05:30:07;8.23;;;6.10;;
7485;SDS011;3784;54.098;9.998;2023-09-07T05:32:34;6.30;;;5.80;;
7485;SDS011;3784;54.098;9.998;2023-09-07T05:35:00;6.77;;;6.17;;
7485;SDS011;3784;54.098;9.998;2023-09-07T05:37:26;6.20;;;5.67;;
7485;SDS011;3784;54.098;9.998;2023-09-07T05:39:53;6.80;;;6.20;;
7485;SDS011;3784;54.098;9.998;2023-09-07T05:42:19;8.30;;;6.43;;
7485;SDS011;3784;54.098;9.998;2023-09-07T05:44:46;7.10;;;6.50;;
7485;SDS011;3784;54.098;9.998;2023-09-07T05:47:12;8.63;;;6.40;;
7485;SDS011;3784;54.098;9.998;2023-09-07T05:49:38;7.27;;;6.27;;
7485;SDS011;3784;54.098;9.998;2023-09-07T05:52:05;7.57;;;6.87;;
7485;SDS011;3784;54.098;9.998;2023-09-07T05:54:34;6.83;;;6.23;;
7485;SDS011;3784;54.098;9.998;2023-09-07T05:57:01;7.40;;;6.70;;
7485;SDS011;3784;54.098;9.998;2023-09-07T05:59:27;7.57;;;6.97;;
7485;SDS011;3784;54.098;9.998;2023-09-07T06:01:54;7.33;;;6.73;;
7485;SDS011;3784;54.098;9.998;2023-09-07T06:04:20;8.13;;;6.87;;
7485;SDS011;3784;54.098;9.998;2023-09-07T06:06:47;7.87;;;6.17;;
7485;SDS011;3784;54.098;9.998;2023-09-07T06:09:13;7.60;;;6.73;;
7485;SDS011;3784;54.098;9.998;2023-09-07T06:11:39;7.60;;;6.90;;
7485;SDS011;3784;54.098;9.998;2023-09-07T06:14:06;7.63;;;6.90;;
7485;SDS011;3784;54.098;9.998;2023-09-07T06:16:32;8.13;;;7.33;;
7485;SDS011;3784;54.098;9.998;2023-09-07T06:18:59;7.30;;;6.60;;
7485;SDS011;3784;54.098;9.998;2023-09-07T06:21:25;6.40;;;5.90;;
7485;SDS011;3784;54.098;9.998;2023-09-07T06:23:51;7.13;;;6.53;;
7485;SDS011;3784;54.098;9.998;2023-09-07T06:26:18;7.17;;;6.47;;
7485;SDS011;3784;54.098;9.998;2023-09-07T06:28:45;7.53;;;6.50;;
7485;SDS011;3784;54.098;9.998;2023-09-07T06:31:11;6.93;;;6.30;;
7485;SDS011;3784;54.098;9.998;2023-09-07T06:33:40;6.77;;;6.17;;
7485;SDS011;3784;54.098;9.998;2023-09-07T06:36:06;7.00;;;6.27;;
7485;SDS011;3784;54.098;9.998;2023-09-07T06:38:33;8.43;;;6.70;;
7485;SDS011;3784;54.098;9.998;2023-09-07T06:40:59;7.13;;;6.43;;
7485;SDS011;3784;54.098;9.998;2023-09-07T06:43:26;6.87;;;6.27;;
7485;SDS011;3784;54.098;9.998;2023-09-07T06:45:52;7.90;;;7.00;;
7485;SDS011;3784;54.098;9.998;2023-09-07T06:48:19;6.83;;;6.17;;
7485;SDS011;3784;54.098;9.998;2023-09-07T06:50:45;6.77;;;6.10;;
7485;SDS011;3784;54.098;9.998;2023-09-07T06:53:12;6.40;;;5.80;;
7485;SDS011;3784;54.098;9.998;2023-09-07T06:55:38;7.23;;;6.53;;
7485;SDS011;3784;54.098;9.998;2023-09-07T06:58:04;6.63;;;5.90;;
7485;SDS011;3784;54.098;9.998;2023-09-07T07:00:31;6.63;;;6.07;;
7485;SDS011;3784;54.098;9.998;2023-09-07T07:02:57;7.67;;;6.10;;
7485;SDS011;3784;54.098;9.998;2023-09-07T07:05:25;7.47;;;5.77;;
7485;SDS011;3784;54.098;9.998;2023-09-07T07:07:54;7.07;;;5.67;;
7485;SDS011;3784;54.098;9.998;2023-09-07T07:10:20;5.83;;;5.30;;
7485;SDS011;3784;54.098;9.998;2023-09-07T07:12:47;6.23;;;5.63;;
7485;SDS011;3784;54.098;9.998;2023-09-07T07:15:13;6.70;;;5.40;;
7485;SDS011;3784;54.098;9.998;2023-09-07T07:17:40;5.50;;;4.97;;
7485;SDS011;3784;54.098;9.998;2023-09-07T07:20:06;6.13;;;5.50;;
7485;SDS011;3784;54.098;9.998;2023-09-07T07:22:33;6.23;;;5.70;;
7485;SDS011;3784;54.098;9.998;2023-09-07T07:25:02;7.13;;;5.63;;
7485;SDS011;3784;54.098;9.998;2023-09-07T07:27:31;6.50;;;5.10;;
7485;SDS011;3784;54.098;9.998;2023-09-07T07:29:58;6.10;;;5.50;;
7485;SDS011;3784;54.098;9.998;2023-09-07T07:32:24;6.73;;;5.70;;
7485;SDS011;3784;54.098;9.998;2023-09-07T07:34:51;5.97;;;5.37;;
7485;SDS011;3784;54.098;9.998;2023-09-07T07:37:17;5.73;;;5.10;;
7485;SDS011;3784;54.098;9.998;2023-09-07T07:39:44;5.73;;;5.13;;
7485;SDS011;3784;54.098;9.998;2023-09-07T07:42:10;5.60;;;5.00;;
7485;SDS011;3784;54.098;9.998;2023-09-07T07:44:37;5.13;;;4.67;;
7485;SDS011;3784;54.098;9.998;2023-09-07T07:47:03;5.30;;;4.60;;
7485;SDS011;3784;54.098;9.998;2023-09-07T07:49:30;5.30;;;4.70;;
7485;SDS011;3784;54.098;9.998;2023-09-07T07:51:58;4.73;;;4.33;;
7485;SDS011;3784;54.098;9.998;2023-09-07T07:54:24;5.37;;;4.00;;
7485;SDS011;3784;54.098;9.998;2023-09-07T07:56:52;7.03;;;4.47;;
7485;SDS011;3784;54.098;9.998;2023-09-07T07:59:18;5.10;;;4.60;;
7485;SDS011;3784;54.098;9.998;2023-09-07T08:01:45;6.77;;;5.13;;
7485;SDS011;3784;54.098;9.998;2023-09-07T08:04:11;5.80;;;4.50;;
7485;SDS011;3784;54.098;9.998;2023-09-07T08:06:38;6.47;;;4.70;;
7485;SDS011;3784;54.098;9.998;2023-09-07T08:09:04;6.67;;;4.40;;
7485;SDS011;3784;54.098;9.998;2023-09-07T08:11:31;4.67;;;4.17;;
7485;SDS011;3784;54.098;9.998;2023-09-07T08:13:57;6.43;;;4.27;;
7485;SDS011;3784;54.098;9.998;2023-09-07T08:16:24;5.67;;;4.47;;
7485;SDS011;3784;54.098;9.998;2023-09-07T08:18:51;4.83;;;4.00;;
7485;SDS011;3784;54.098;9.998;2023-09-07T08:21:17;4.33;;;4.03;;
7485;SDS011;3784;54.098;9.998;2023-09-07T08:23:44;5.33;;;4.30;;
7485;SDS011;3784;54.098;9.998;2023-09-07T08:26:10;4.50;;;4.10;;
7485;SDS011;3784;54.098;9.998;2023-09-07T08:28:37;4.77;;;4.20;;
7485;SDS011;3784;54.098;9.998;2023-09-07T08:31:03;5.90;;;4.30;;
7485;SDS011;3784;54.098;9.998;2023-09-07T08:33:31;6.67;;;4.33;;
7485;SDS011;3784;54.098;9.998;2023-09-07T08:35:59;5.10;;;4.33;;
7485;SDS011;3784;54.098;9.998;2023-09-07T08:38:27;5.30;;;3.83;;
7485;SDS011;3784;54.098;9.998;2023-09-07T08:40:55;8.53;;;4.13;;
7485;SDS011;3784;54.098;9.998;2023-09-07T08:43:22;4.60;;;4.20;;
7485;SDS011;3784;54.098;9.998;2023-09-07T08:45:57;4.30;;;3.50;;
7485;SDS011;3784;54.098;9.998;2023-09-07T08:48:27;4.50;;;4.10;;
7485;SDS011;3784;54.098;9.998;2023-09-07T08:50:54;4.20;;;3.73;;
7485;SDS011;3784;54.098;9.998;2023-09-07T08:53:21;6.67;;;3.90;;
7485;SDS011;3784;54.098;9.998;2023-09-07T08:55:48;3.90;;;3.50;;
7485;SDS011;3784;54.098;9.998;2023-09-07T08:58:14;5.10;;;3.50;;
7485;SDS011;3784;54.098;9.998;2023-09-07T09:00:41;4.67;;;3.30;;
7485;SDS011;3784;54.098;9.998;2023-09-07T09:03:09;6.10;;;3.80;;
7485;SDS011;3784;54.098;9.998;2023-09-07T09:05:38;6.93;;;3.83;;
7485;SDS011;3784;54.098;9.998;2023-09-07T09:08:05;5.93;;;3.90;;
7485;SDS011;3784;54.098;9.998;2023-09-07T09:10:37;6.30;;;4.00;;
7485;SDS011;3784;54.098;9.998;2023-09-07T09:13:04;5.10;;;3.40;;
7485;SDS011;3784;54.098;9.998;2023-09-07T09:15:31;4.30;;;3.50;;
7485;SDS011;3784;54.098;9.998;2023-09-07T09:17:57;7.80;;;4.07;;
7485;SDS011;3784;54.098;9.998;2023-09-07T09:20:24;4.67;;;3.73;;
7485;SDS011;3784;54.098;9.998;2023-09-07T09:22:53;4.20;;;3.80;;
7485;SDS011;3784;54.098;9.998;2023-09-07T09:25:20;4.70;;;3.30;;
7485;SDS011;3784;54.098;9.998;2023-09-07T09:27:47;4.17;;;3.60;;
7485;SDS011;3784;54.098;9.998;2023-09-07T09:30:14;4.37;;;3.60;;
7485;SDS011;3784;54.098;9.998;2023-09-07T09:32:42;4.87;;;3.50;;
7485;SDS011;3784;54.098;9.998;2023-09-07T09:35:09;4.60;;;3.30;;
7485;SDS011;3784;54.098;9.998;2023-09-07T09:37:43;4.37;;;3.57;;
7485;SDS011;3784;54.098;9.998;2023-09-07T09:40:11;4.10;;;3.63;;
7485;SDS011;3784;54.098;9.998;2023-09-07T09:42:38;5.33;;;3.53;;
7485;SDS011;3784;54.098;9.998;2023-09-07T09:45:07;4.23;;;3.77;;
7485;SDS011;3784;54.098;9.998;2023-09-07T09:47:34;4.23;;;3.50;;
7485;SDS011;3784;54.098;9.998;2023-09-07T09:50:05;4.60;;;3.47;;
7485;SDS011;3784;54.098;9.998;2023-09-07T09:52:36;3.87;;;3.47;;
7485;SDS011;3784;54.098;9.998;2023-09-07T09:55:03;4.50;;;3.57;;
7485;SDS011;3784;54.098;9.998;2023-09-07T09:57:33;5.07;;;3.50;;
7485;SDS011;3784;54.098;9.998;2023-09-07T10:00:00;5.27;;;3.50;;
7485;SDS011;3784;54.098;9.998;2023-09-07T10:02:35;4.33;;;3.90;;
7485;SDS011;3784;54.098;9.998;2023-09-07T10:05:03;5.30;;;3.40;;
7485;SDS011;3784;54.098;9.998;2023-09-07T10:07:43;6.43;;;3.73;;
7485;SDS011;3784;54.098;9.998;2023-09-07T10:10:13;4.37;;;4.00;;
7485;SDS011;3784;54.098;9.998;2023-09-07T10:12:41;4.03;;;3.37;;
7485;SDS011;3784;54.098;9.998;2023-09-07T10:15:25;5.80;;;3.67;;
7485;SDS011;3784;54.098;9.998;2023-09-07T10:18:11;6.50;;;3.40;;
7485;SDS011;3784;54.098;9.998;2023-09-07T10:23:20;6.93;;;3.30;;
7485;SDS011;3784;54.098;9.998;2023-09-07T10:25:47;3.60;;;3.30;;
7485;SDS011;3784;54.098;9.998;2023-09-07T10:28:21;3.67;;;3.10;;
7485;SDS011;3784;54.098;9.998;2023-09-07T10:31:25;3.50;;;3.20;;
7485;SDS011;3784;54.098;9.998;2023-09-07T10:33:45;3.63;;;3.30;;
7485;SDS011;3784;54.098;9.998;2023-09-07T10:36:21;6.17;;;3.10;;
7485;SDS011;3784;54.098;9.998;2023-09-07T10:38:49;4.43;;;3.33;;
7485;SDS011;3784;54.098;9.998;2023-09-07T10:41:15;3.37;;;3.07;;
7485;SDS011;3784;54.098;9.998;2023-09-07T10:43:49;6.03;;;3.53;;
7485;SDS011;3784;54.098;9.998;2023-09-07T10:46:20;3.83;;;3.30;;
7485;SDS011;3784;54.098;9.998;2023-09-07T10:48:51;4.17;;;3.03;;
7485;SDS011;3784;54.098;9.998;2023-09-07T10:51:18;4.03;;;3.00;;
7485;SDS011;3784;54.098;9.998;2023-09-07T10:53:45;5.90;;;3.20;;
7485;SDS011;3784;54.098;9.998;2023-09-07T10:56:12;3.63;;;2.90;;
7485;SDS011;3784;54.098;9.998;2023-09-07T10:58:38;4.63;;;3.23;;
7485;SDS011;3784;54.098;9.998;2023-09-07T11:01:08;5.80;;;3.07;;
7485;SDS011;3784;54.098;9.998;2023-09-07T11:03:41;5.53;;;3.03;;
7485;SDS011;3784;54.098;9.998;2023-09-07T11:06:12;3.07;;;2.87;;
7485;SDS011;3784;54.098;9.998;2023-09-07T11:08:42;4.23;;;2.70;;
7485;SDS011;3784;54.098;9.998;2023-09-07T11:11:09;3.40;;;2.70;;
7485;SDS011;3784;54.098;9.998;2023-09-07T11:13:35;5.03;;;2.87;;
7485;SDS011;3784;54.098;9.998;2023-09-07T11:16:02;3.87;;;2.90;;
7485;SDS011;3784;54.098;9.998;2023-09-07T11:18:29;2.90;;;2.70;;
7485;SDS011;3784;54.098;9.998;2023-09-07T11:20:55;5.10;;;3.20;;
7485;SDS011;3784;54.098;9.998;2023-09-07T11:23:22;3.27;;;2.60;;
7485;SDS011;3784;54.098;9.998;2023-09-07T11:25:49;3.87;;;3.20;;
7485;SDS011;3784;54.098;9.998;2023-09-07T11:28:18;3.87;;;2.70;;
7485;SDS011;3784;54.098;9.998;2023-09-07T11:30:49;4.13;;;2.50;;
7485;SDS011;3784;54.098;9.998;2023-09-07T11:33:20;3.33;;;2.70;;
7485;SDS011;3784;54.098;9.998;2023-09-07T11:35:47;2.80;;;2.57;;
7485;SDS011;3784;54.098;9.998;2023-09-07T11:38:14;3.30;;;3.00;;
7485;SDS011;3784;54.098;9.998;2023-09-07T11:40:42;2.83;;;2.60;;
7485;SDS011;3784;54.098;9.998;2023-09-07T11:43:12;2.90;;;2.60;;
7485;SDS011;3784;54.098;9.998;2023-09-07T11:45:40;2.90;;;2.67;;
7485;SDS011;3784;54.098;9.998;2023-09-07T11:48:08;6.37;;;2.60;;
7485;SDS011;3784;54.098;9.998;2023-09-07T11:50:37;5.03;;;2.70;;
7485;SDS011;3784;54.098;9.998;2023-09-07T11:53:05;3.67;;;2.90;;
7485;SDS011;3784;54.098;9.998;2023-09-07T11:55:32;2.80;;;2.60;;
7485;SDS011;3784;54.098;9.998;2023-09-07T11:58:02;4.53;;;2.73;;
7485;SDS011;3784;54.098;9.998;2023-09-07T12:00:29;4.70;;;2.80;;
7485;SDS011;3784;54.098;9.998;2023-09-07T12:02:57;5.13;;;2.90;;
7485;SDS011;3784;54.098;9.998;2023-09-07T12:05:24;5.20;;;2.87;;
7485;SDS011;3784;54.098;9.998;2023-09-07T12:07:51;3.40;;;3.10;;
7485;SDS011;3784;54.098;9.998;2023-09-07T12:10:17;3.57;;;2.87;;
7485;SDS011;3784;54.098;9.998;2023-09-07T12:12:44;4.73;;;2.87;;
7485;SDS011;3784;54.098;9.998;2023-09-07T12:15:10;3.87;;;3.03;;
7485;SDS011;3784;54.098;9.998;2023-09-07T12:17:40;4.17;;;3.50;;
7485;SDS011;3784;54.098;9.998;2023-09-07T12:20:07;3.83;;;2.87;;
7485;SDS011;3784;54.098;9.998;2023-09-07T12:22:39;4.43;;;3.57;;
7485;SDS011;3784;54.098;9.998;2023-09-07T12:25:05;3.93;;;3.10;;
7485;SDS011;3784;54.098;9.998;2023-09-07T12:27:41;2.93;;;2.67;;
7485;SDS011;3784;54.098;9.998;2023-09-07T12:30:18;4.07;;;3.23;;
7485;SDS011;3784;54.098;9.998;2023-09-07T12:32:47;3.67;;;3.20;;
7485;SDS011;3784;54.098;9.998;2023-09-07T12:35:15;7.23;;;3.13;;
7485;SDS011;3784;54.098;9.998;2023-09-07T12:37:42;4.57;;;2.90;;
7485;SDS011;3784;54.098;9.998;2023-09-07T12:40:09;4.80;;;3.03;;
7485;SDS011;3784;54.098;9.998;2023-09-07T12:42:44;5.07;;;3.30;;
7485;SDS011;3784;54.098;9.998;2023-09-07T12:45:12;5.87;;;3.10;;
7485;SDS011;3784;54.098;9.998;2023-09-07T12:47:40;3.27;;;2.93;;
7485;SDS011;3784;54.098;9.998;2023-09-07T12:50:06;3.60;;;2.90;;
7485;SDS011;3784;54.098;9.998;2023-09-07T12:52:34;5.57;;;3.00;;
7485;SDS011;3784;54.098;9.998;2023-09-07T12:55:04;4.97;;;2.83;;
7485;SDS011;3784;54.098;9.998;2023-09-07T12:57:31;3.30;;;3.00;;
7485;SDS011;3784;54.098;9.998;2023-09-07T12:59:57;5.27;;;3.10;;
7485;SDS011;3784;54.098;9.998;2023-09-07T13:02:24;5.20;;;2.93;;
7485;SDS011;3784;54.098;9.998;2023-09-07T13:04:50;4.10;;;3.00;;
7485;SDS011;3784;54.098;9.998;2023-09-07T13:07:17;5.77;;;3.17;;
7485;SDS011;3784;54.098;9.998;2023-09-07T13:09:44;4.70;;;2.80;;
7485;SDS011;3784;54.098;9.998;2023-09-07T13:12:11;5.13;;;3.00;;
7485;SDS011;3784;54.098;9.998;2023-09-07T13:14:38;4.40;;;3.00;;
7485;SDS011;3784;54.098;9.998;2023-09-07T13:17:04;4.07;;;3.03;;
7485;SDS011;3784;54.098;9.998;2023-09-07T13:19:31;3.80;;;3.13;;
7485;SDS011;3784;54.098;9.998;2023-09-07T13:21:57;5.53;;;3.27;;
7485;SDS011;3784;54.098;9.998;2023-09-07T13:24:24;2.90;;;2.70;;
7485;SDS011;3784;54.098;9.998;2023-09-07T13:26:50;3.57;;;2.87;;
7485;SDS011;3784;54.098;9.998;2023-09-07T13:29:17;4.10;;;2.73;;
7485;SDS011;3784;54.098;9.998;2023-09-07T13:31:43;6.67;;;3.10;;
7485;SDS011;3784;54.098;9.998;2023-09-07T13:34:10;5.30;;;3.07;;
7485;SDS011;3784;54.098;9.998;2023-09-07T13:36:36;4.13;;;2.60;;
7485;SDS011;3784;54.098;9.998;2023-09-07T13:39:02;3.87;;;3.10;;
7485;SDS011;3784;54.098;9.998;2023-09-07T13:41:29;4.73;;;2.90;;
7485;SDS011;3784;54.098;9.998;2023-09-07T13:43:55;3.30;;;3.00;;
7485;SDS011;3784;54.098;9.998;2023-09-07T13:46:22;4.20;;;2.83;;
7485;SDS011;3784;54.098;9.998;2023-09-07T13:48:49;6.77;;;3.10;;
7485;SDS011;3784;54.098;9.998;2023-09-07T13:51:16;4.50;;;3.03;;
7485;SDS011;3784;54.098;9.998;2023-09-07T13:53:43;5.13;;;3.30;;
7485;SDS011;3784;54.098;9.998;2023-09-07T13:56:09;8.00;;;3.20;;
7485;SDS011;3784;54.098;9.998;2023-09-07T13:58:35;3.90;;;2.80;;
7485;SDS011;3784;54.098;9.998;2023-09-07T14:01:02;3.37;;;2.80;;
7485;SDS011;3784;54.098;9.998;2023-09-07T14:03:29;4.87;;;2.97;;
7485;SDS011;3784;54.098;9.998;2023-09-07T14:05:56;3.70;;;3.30;;
7485;SDS011;3784;54.098;9.998;2023-09-07T14:08:22;5.20;;;3.10;;
7485;SDS011;3784;54.098;9.998;2023-09-07T14:10:50;3.37;;;2.70;;
7485;SDS011;3784;54.098;9.998;2023-09-07T14:13:20;4.10;;;2.80;;
7485;SDS011;3784;54.098;9.998;2023-09-07T14:15:46;3.77;;;3.27;;
7485;SDS011;3784;54.098;9.998;2023-09-07T14:18:13;3.53;;;3.17;;
7485;SDS011;3784;54.098;9.998;2023-09-07T14:20:39;4.90;;;3.10;;
7485;SDS011;3784;54.098;9.998;2023-09-07T14:23:05;3.40;;;3.10;;
7485;SDS011;3784;54.098;9.998;2023-09-07T14:25:32;4.23;;;3.20;;
7485;SDS011;3784;54.098;9.998;2023-09-07T14:27:58;3.70;;;3.03;;
7485;SDS011;3784;54.098;9.998;2023-09-07T14:30:25;5.43;;;3.53;;
7485;SDS011;3784;54.098;9.998;2023-09-07T14:32:51;5.80;;;3.33;;
7485;SDS011;3784;54.098;9.998;2023-09-07T14:35:18;5.13;;;3.60;;
7485;SDS011;3784;54.098;9.998;2023-09-07T14:37:44;4.13;;;3.83;;
7485;SDS011;3784;54.098;9.998;2023-09-07T14:40:10;7.57;;;3.63;;
7485;SDS011;3784;54.098;9.998;2023-09-07T14:42:37;5.73;;;3.77;;
7485;SDS011;3784;54.098;9.998;2023-09-07T14:45:04;4.50;;;3.63;;
7485;SDS011;3784;54.098;9.998;2023-09-07T14:47:30;4.77;;;3.33;;
7485;SDS011;3784;54.098;9.998;2023-09-07T14:49:57;4.47;;;3.20;;
7485;SDS011;3784;54.098;9.998;2023-09-07T14:52:24;8.30;;;3.90;;
7485;SDS011;3784;54.098;9.998;2023-09-07T14:54:50;6.83;;;3.30;;
7485;SDS011;3784;54.098;9.998;2023-09-07T14:57:17;5.17;;;3.70;;
7485;SDS011;3784;54.098;9.998;2023-09-07T14:59:44;7.07;;;4.13;;
7485;SDS011;3784;54.098;9.998;2023-09-07T15:02:11;5.33;;;4.30;;
7485;SDS011;3784;54.098;9.998;2023-09-07T15:04:37;5.80;;;3.60;;
7485;SDS011;3784;54.098;9.998;2023-09-07T15:07:04;4.40;;;4.00;;
7485;SDS011;3784;54.098;9.998;2023-09-07T15:09:30;4.40;;;4.03;;
7485;SDS011;3784;54.098;9.998;2023-09-07T15:11:56;4.13;;;3.73;;
7485;SDS011;3784;54.098;9.998;2023-09-07T15:14:23;4.43;;;3.80;;
7485;SDS011;3784;54.098;9.998;2023-09-07T15:16:49;4.47;;;3.90;;
7485;SDS011;3784;54.098;9.998;2023-09-07T15:19:16;5.23;;;3.90;;